createdAt,value
2022-12-06T07:01:23.668Z,86.53
2022-12-06T07:03:54.616Z,86.47
2022-12-06T07:06:22.532Z,86.43
2022-12-06T07:08:50.696Z,86.57
2022-12-06T07:11:18.471Z,86.55
2022-12-06T07:13:51.204Z,86.66
2022-12-06T07:16:20.674Z,86.84
2022-12-06T07:18:48.519Z,86.77
2022-12-06T07:21:16.635Z,86.84
2022-12-06T07:23:44.547Z,86.79
2022-12-06T07:26:13.634Z,86.77
2022-12-06T07:28:44.575Z,86.94
2022-12-06T07:31:27.522Z,86.97
2022-12-06T07:34:00.504Z,86.87
2022-12-06T07:36:32.874Z,86.86
2022-12-06T07:39:01.165Z,86.99
2022-12-06T07:41:48.574Z,86.89
2022-12-06T07:44:37.519Z,86.85
2022-12-06T07:47:05.405Z,86.91
2022-12-06T07:49:33.435Z,87.14
2022-12-06T07:52:01.531Z,87.02
2022-12-06T07:54:29.386Z,87.11
2022-12-06T07:56:57.248Z,87.05
2022-12-06T07:59:25.732Z,86.92
2022-12-06T08:01:54.314Z,87.10
2022-12-06T08:04:22.547Z,87.10
2022-12-06T08:06:50.717Z,86.96
2022-12-06T08:09:18.624Z,86.93
2022-12-06T08:11:46.489Z,86.91
2022-12-06T08:14:15.915Z,87.12
2022-12-06T08:16:43.748Z,87.05
2022-12-06T08:19:11.513Z,87.11
2022-12-06T08:21:39.385Z,87.28
2022-12-06T08:24:07.587Z,87.23
2022-12-06T08:26:36.416Z,87.00
2022-12-06T08:29:04.513Z,86.88
2022-12-06T08:31:34.861Z,86.85
2022-12-06T08:34:04.301Z,86.59
2022-12-06T08:36:32.174Z,86.85
2022-12-06T08:39:00.837Z,86.85
2022-12-06T08:41:47.500Z,87.20
2022-12-06T08:44:16.389Z,87.14
2022-12-06T08:46:44.332Z,87.26
2022-12-06T08:49:13.458Z,87.33
2022-12-06T08:51:41.614Z,87.15
2022-12-06T08:54:13.812Z,87.17
2022-12-06T08:56:42.070Z,87.05
2022-12-06T08:59:09.929Z,87.32
2022-12-06T09:01:38.914Z,87.41
2022-12-06T09:04:08.905Z,87.32
2022-12-06T09:06:39.063Z,87.27
2022-12-06T09:09:08.363Z,87.22
2022-12-06T09:11:36.332Z,87.27
2022-12-06T09:14:04.195Z,87.42
2022-12-06T09:16:32.011Z,87.18
2022-12-06T09:18:59.923Z,87.28
2022-12-06T09:21:33.132Z,87.24
2022-12-06T09:24:00.852Z,87.24
2022-12-06T09:26:28.986Z,87.15
2022-12-06T09:28:58.094Z,87.10
2022-12-06T09:31:26.344Z,87.02
2022-12-06T09:33:54.821Z,87.15
2022-12-06T09:36:28.257Z,86.95
2022-12-06T09:38:59.133Z,86.87
2022-12-06T09:41:58.636Z,86.94
2022-12-06T09:44:45.038Z,86.93
2022-12-06T09:47:18.591Z,87.09
2022-12-06T09:50:18.966Z,87.09
2022-12-06T09:53:11.300Z,87.29
2022-12-06T09:55:57.807Z,87.37
2022-12-06T09:58:41.939Z,87.48
2022-12-06T10:01:27.593Z,87.46
2022-12-06T10:04:07.292Z,87.45
2022-12-06T10:06:45.991Z,87.30
2022-12-06T10:09:30.767Z,87.52
2022-12-06T10:12:16.966Z,87.46
2022-12-06T10:14:56.596Z,87.53
2022-12-06T10:17:39.050Z,87.70
2022-12-06T10:20:41.479Z,87.56
2022-12-06T10:23:13.972Z,87.40
2022-12-06T10:26:01.920Z,87.40
2022-12-06T10:29:06.517Z,87.20
2022-12-06T10:31:56.293Z,87.46
2022-12-06T10:34:29.971Z,87.27
2022-12-06T10:37:23.441Z,87.24
2022-12-06T10:39:57.987Z,87.34
2022-12-06T10:43:05.194Z,87.18
2022-12-06T10:46:05.632Z,87.33
2022-12-06T10:49:06.140Z,87.12
2022-12-06T10:51:53.869Z,87.12
2022-12-06T10:54:33.920Z,87.16
2022-12-06T10:57:08.246Z,87.17
2022-12-06T10:59:48.911Z,87.04
2022-12-06T11:02:28.614Z,87.28
2022-12-06T11:05:02.248Z,87.20
2022-12-06T11:07:43.464Z,87.44
2022-12-06T11:10:33.607Z,87.24
2022-12-06T11:13:13.846Z,87.16
2022-12-06T11:15:50.902Z,87.38
2022-12-06T11:18:20.009Z,87.34
2022-12-06T11:20:53.975Z,87.31
2022-12-06T11:23:50.888Z,87.28
2022-12-06T11:26:37.608Z,87.41
2022-12-06T11:29:14.168Z,87.50
2022-12-06T11:31:44.121Z,87.45
2022-12-06T11:34:29.387Z,87.46
2022-12-06T11:37:00.435Z,87.22
2022-12-06T11:39:30.656Z,87.23
2022-12-06T11:42:03.125Z,87.18
2022-12-06T11:44:42.487Z,87.13
2022-12-06T11:47:17.780Z,87.31
2022-12-06T11:49:47.576Z,87.38
2022-12-06T11:52:21.269Z,87.38
2022-12-06T11:55:02.711Z,87.45
2022-12-06T11:57:41.074Z,87.28
2022-12-06T12:00:15.099Z,87.36
2022-12-06T12:02:46.518Z,87.40
2022-12-06T12:05:23.953Z,87.31
2022-12-06T12:08:04.950Z,87.58
2022-12-06T12:10:40.771Z,87.34
2022-12-06T12:13:30.110Z,87.57
2022-12-06T12:16:01.604Z,87.39
2022-12-06T12:18:33.541Z,87.28
2022-12-06T12:21:03.337Z,87.53
2022-12-06T12:23:43.195Z,87.50
2022-12-06T12:26:15.769Z,87.60
2022-12-06T12:28:47.006Z,87.33
2022-12-06T12:31:20.866Z,87.43
2022-12-06T12:33:49.906Z,87.38
2022-12-06T12:36:29.105Z,87.13
2022-12-06T12:39:01.173Z,87.41
2022-12-06T12:41:44.029Z,87.41
2022-12-06T12:44:37.651Z,87.52
2022-12-06T12:47:26.958Z,87.60
2022-12-06T12:50:18.798Z,87.57
2022-12-06T12:52:47.469Z,87.56
2022-12-06T12:55:22.958Z,87.57
2022-12-06T12:57:57.426Z,87.63
2022-12-06T13:00:30.881Z,87.48
2022-12-06T13:03:02.131Z,87.74
2022-12-06T13:05:34.814Z,87.59
2022-12-06T13:08:19.065Z,87.43
2022-12-06T13:10:54.128Z,87.67
2022-12-06T13:13:32.544Z,87.64
2022-12-06T13:16:05.899Z,87.80
2022-12-06T13:18:44.972Z,87.87
2022-12-06T13:21:37.799Z,87.72
2022-12-06T13:24:11.556Z,87.74
2022-12-06T13:26:54.462Z,87.68
2022-12-06T13:29:35.602Z,87.68
2022-12-06T13:32:22.109Z,87.89
2022-12-06T13:35:04.817Z,87.73
2022-12-06T13:37:44.914Z,87.80
2022-12-06T13:40:52.526Z,87.65
2022-12-06T13:43:23.204Z,87.73
2022-12-06T13:46:16.288Z,87.80
2022-12-06T13:48:50.119Z,87.80
2022-12-06T13:51:33.205Z,87.94
2022-12-06T13:54:03.866Z,87.67
2022-12-06T13:56:34.598Z,87.89
2022-12-06T13:59:05.607Z,88.13
2022-12-06T14:01:40.421Z,87.89
2022-12-06T14:09:41.200Z,87.97
2022-12-06T14:12:29.544Z,88.02
2022-12-06T14:15:02.537Z,88.21
2022-12-06T14:20:30.828Z,88.33
2022-12-06T14:22:59.189Z,88.12
2022-12-06T14:25:29.781Z,88.07
2022-12-06T14:28:13.467Z,88.16
2022-12-06T14:30:42.241Z,88.20
2022-12-06T14:33:22.935Z,88.33
2022-12-06T14:35:53.149Z,88.13
2022-12-06T14:38:29.823Z,88.21
2022-12-06T14:41:16.725Z,88.35
2022-12-06T14:43:47.434Z,88.22
2022-12-06T14:46:17.701Z,88.31
2022-12-06T14:49:04.990Z,88.33
2022-12-06T14:51:40.781Z,88.42
2022-12-06T14:54:26.760Z,88.31
2022-12-06T14:56:54.525Z,88.52
2022-12-06T15:00:02.919Z,88.50
2022-12-06T15:02:28.925Z,88.35
2022-12-06T15:04:58.407Z,88.35
2022-12-06T15:07:38.570Z,88.19
2022-12-06T15:10:20.860Z,88.39
2022-12-06T15:12:56.048Z,88.35
2022-12-06T15:15:36.518Z,88.42
2022-12-06T15:18:28.594Z,88.41
2022-12-06T15:20:56.499Z,88.70
2022-12-06T15:23:38.396Z,88.54
2022-12-06T15:26:10.396Z,88.32
2022-12-06T15:28:38.191Z,88.38
2022-12-06T15:31:13.696Z,88.39
2022-12-06T15:33:41.504Z,88.51
2022-12-06T15:36:17.880Z,88.07
2022-12-06T15:38:45.960Z,88.25
2022-12-06T15:41:16.891Z,88.08
2022-12-06T15:43:45.173Z,88.12
2022-12-06T15:46:27.595Z,88.20
2022-12-06T15:48:56.170Z,88.19
2022-12-06T15:51:26.836Z,88.34
2022-12-06T15:53:56.720Z,88.20
2022-12-06T15:56:28.576Z,88.07
2022-12-06T15:58:56.349Z,88.20
2022-12-06T16:01:31.598Z,88.21
2022-12-06T16:03:59.647Z,88.20
2022-12-06T16:06:29.460Z,88.16
2022-12-06T16:08:57.320Z,88.22
2022-12-06T16:11:26.947Z,88.16
2022-12-06T16:13:54.792Z,88.18
2022-12-06T16:16:22.880Z,88.47
2022-12-06T16:18:51.988Z,88.51
2022-12-06T16:21:21.383Z,88.38
2022-12-06T16:24:16.502Z,88.30
2022-12-06T16:26:45.388Z,88.22
2022-12-06T16:29:21.013Z,87.92
2022-12-06T16:31:49.575Z,88.02
2022-12-06T16:34:17.940Z,87.88
2022-12-06T16:37:00.713Z,87.95
2022-12-06T16:39:30.772Z,87.92
2022-12-06T16:41:58.827Z,87.74
2022-12-06T16:44:26.793Z,87.83
2022-12-06T16:46:54.763Z,87.97
2022-12-06T16:52:14.638Z,87.90
2022-12-06T16:54:42.765Z,87.81
2022-12-06T16:57:14.585Z,87.74
2022-12-06T16:59:42.898Z,87.80
2022-12-06T17:02:29.387Z,87.93
2022-12-06T17:05:06.508Z,87.70
2022-12-06T17:07:35.947Z,87.66
2022-12-06T17:10:04.568Z,87.63
2022-12-06T17:12:32.967Z,87.68
2022-12-06T17:15:01.229Z,87.95
2022-12-06T17:17:29.567Z,87.93
2022-12-06T17:19:57.469Z,87.93
2022-12-06T17:22:25.245Z,88.03
2022-12-06T17:24:53.402Z,88.02
2022-12-06T17:27:21.894Z,87.83
2022-12-06T17:29:49.752Z,87.89
2022-12-06T17:32:18.667Z,87.92
2022-12-06T17:34:47.026Z,87.88
2022-12-06T17:37:15.169Z,87.79
2022-12-06T17:39:42.894Z,87.75
2022-12-06T17:42:30.706Z,87.83
2022-12-06T17:44:58.768Z,88.09
2022-12-06T17:47:26.718Z,88.00
2022-12-06T17:49:56.367Z,88.04
2022-12-06T17:52:24.827Z,88.12
2022-12-06T17:54:52.580Z,87.79
2022-12-06T17:57:20.332Z,87.87
2022-12-06T17:59:48.823Z,87.90
2022-12-06T18:02:19.864Z,87.65
2022-12-06T18:04:48.397Z,87.89
2022-12-06T18:07:17.753Z,87.94
2022-12-06T18:09:46.041Z,88.22
2022-12-06T18:12:16.039Z,88.21
2022-12-06T18:14:44.924Z,88.16
2022-12-06T18:17:12.893Z,88.13
2022-12-06T18:19:40.934Z,88.31
2022-12-06T18:22:09.038Z,88.22
2022-12-06T18:24:36.902Z,88.34
2022-12-06T18:27:06.329Z,88.22
2022-12-06T18:29:34.675Z,88.26
2022-12-06T18:32:03.937Z,88.29
2022-12-06T18:34:31.840Z,88.14
2022-12-06T18:36:59.673Z,88.38
2022-12-06T18:39:28.138Z,88.57
2022-12-06T18:41:56.290Z,88.44
2022-12-06T18:44:24.876Z,88.60
2022-12-06T18:46:53.019Z,88.54
2022-12-06T18:49:21.089Z,88.49
2022-12-06T18:51:49.047Z,88.42
2022-12-06T18:54:16.822Z,88.21
2022-12-06T18:56:44.830Z,88.42
2022-12-06T18:59:13.057Z,88.28
2022-12-06T19:01:41.845Z,88.36
2022-12-06T19:04:14.891Z,88.78
2022-12-06T19:06:44.584Z,88.64
2022-12-06T19:09:15.669Z,89.01
2022-12-06T19:11:45.966Z,88.64
2022-12-06T19:14:14.458Z,88.62
2022-12-06T19:16:47.555Z,88.41
2022-12-06T19:19:24.141Z,88.31
2022-12-06T19:21:53.849Z,88.04
2022-12-06T19:24:24.476Z,88.03
2022-12-06T19:26:54.225Z,88.25
2022-12-06T19:29:22.467Z,88.28
2022-12-06T19:31:50.850Z,88.36
2022-12-06T19:34:24.851Z,88.09
2022-12-06T19:36:54.269Z,87.98
2022-12-06T19:39:22.220Z,87.93
2022-12-06T19:42:09.083Z,87.82
2022-12-06T19:44:37.133Z,88.05
2022-12-06T19:47:05.061Z,88.37
2022-12-06T19:49:32.847Z,88.46
2022-12-06T19:52:01.402Z,88.24
2022-12-06T19:54:31.085Z,88.38
2022-12-06T19:57:00.723Z,88.09
2022-12-06T19:59:31.147Z,87.87
2022-12-06T20:01:59.133Z,88.28
2022-12-06T20:04:33.152Z,87.93
2022-12-06T20:07:01.041Z,88.12
2022-12-06T20:09:30.949Z,88.31
2022-12-06T20:12:04.720Z,88.51
2022-12-06T20:14:34.893Z,88.50
2022-12-06T20:17:05.726Z,88.87
2022-12-06T20:19:34.375Z,88.47
2022-12-06T20:22:02.439Z,88.51
2022-12-06T20:24:30.861Z,88.53
2022-12-06T20:26:58.738Z,88.54
2022-12-06T20:29:27.270Z,88.57
2022-12-06T20:31:58.174Z,88.59
2022-12-06T20:34:29.338Z,88.62
2022-12-06T20:36:57.403Z,88.55
2022-12-06T20:39:27.531Z,88.42
2022-12-06T20:41:55.895Z,88.59
2022-12-06T20:44:24.240Z,88.67
2022-12-06T20:46:53.781Z,88.64
2022-12-06T20:49:23.900Z,88.54
2022-12-06T20:51:53.850Z,88.73
2022-12-06T20:54:26.904Z,88.67
2022-12-06T20:56:55.125Z,88.63
2022-12-06T20:59:23.027Z,88.39
2022-12-06T21:01:51.094Z,88.20
2022-12-06T21:04:19.022Z,88.27
2022-12-06T21:06:46.799Z,87.96
2022-12-06T21:09:14.510Z,88.26
2022-12-06T21:11:42.248Z,87.99
2022-12-06T21:14:11.992Z,88.43
2022-12-06T21:16:41.768Z,88.57
2022-12-06T21:19:14.193Z,88.27
2022-12-06T21:21:48.200Z,88.23
2022-12-06T21:24:20.102Z,88.16
2022-12-06T21:26:48.506Z,88.14
2022-12-06T21:29:19.037Z,88.16
2022-12-06T21:31:47.226Z,88.58
2022-12-06T21:34:15.899Z,88.76
2022-12-06T21:36:44.526Z,88.75
2022-12-06T21:39:13.528Z,88.57
2022-12-06T21:41:41.553Z,88.55
2022-12-06T21:44:09.650Z,88.51
2022-12-06T21:46:38.009Z,88.64
2022-12-06T21:49:06.243Z,88.77
2022-12-06T21:51:34.049Z,88.68
2022-12-06T21:54:02.585Z,88.76
2022-12-06T21:56:31.259Z,88.78
2022-12-06T21:59:02.208Z,88.95
